Guthrie, OK

7:05 AM CDT on April 27, 2015 (GMT -0500)
Guthrie Municipal | | Change Station
CLOSE
Current Station
Airport
Location: Guthrie,
Elevation: 1066 ft
Nearby Weather Stations
Active Advisory: Flash Flood Watch

Elev 1066 ft 35.85 °N, 97.41 °W | Updated 12 minutes ago

Overcast
Overcast
53 °F
Feels Like 53 °F
N
12
Wind Variable Wind from East

Today
High -- | Low -- °F
--% Chance of Precip.
Yesterday
High -- | Low -- °F
Precip. -- in
6:42 AM 8:13 PM
Waxing Gibbous, 64% visible
Pressure 29.86 in
Visibility 7.0 miles
Clouds Overcast 1100 ft
Dew Point 51 °F
Humidity 93%
Rainfall 0.02 in
Snow Depth Not available.
UV 0 out of 12
Pollen 9.60 out of 12
Air Quality Not available.
Flu Activity Local Activity
METAR KGOK 271153Z AUTO 08010KT 7SM OVC011 12/11 A2986 RMK AO2 RAB30E37 SLP109 P0000 60000 70022 T01170106 10117 20111 53016

More Conditions Fewer Conditions

Pressure 29.86 in
Visibility 7.0 miles
Clouds Overcast 1100 ft
Dew Point 51 °F
Humidity 93%
Rainfall 0.02 in
Snow Depth Not available.
UV 0 out of 12
Pollen 9.60 out of 12
Air Quality Not available.
Flu Activity Local Activity
METAR KGOK 271153Z AUTO 08010KT 7SM OVC011 12/11 A2986 RMK AO2 RAB30E37 SLP109 P0000 60000 70022 T01170106 10117 20111 53016

More Conditions Fewer Conditions

10-Day Weather Forecast

Almanac

Astronomy

Apr. 27, 2015 Rise Set
Actual Time
Civil Twilight
Nautical Twilight
Astronomical Twilight
Moon
Length of Visible Light
Length of Day
Tomorrow will be .
, % of the Moon is Illuminated

Today's Extremes

State Highs State Lows

Community

WunderPhotos

Upload Photos

1,817,284 photos uploaded!

WunderBlogs® & News

Nearby

Air Quality

  Air Quality AQ Index Pollutant
Not available.

Snow Depth

Station Depth Elevation

Earthquake Activity

City Distance Mag. Time & Date
Minimum magnitude displayed is 2.5.

Coastal Water Temperatures

Place Temperature

Stations

Nearby Weather Stations

Station Location Temp. Windchill Dew Point Humidity Wind Precip. Elev Updated Type
                   
Flash Flood Watch
Statement as of 3:10 AM CDT on April 27, 2015

... Flash Flood Watch remains in effect through this evening...

The Flash Flood Watch continues for

* portions of Oklahoma and northern Texas... including the
following areas... in Oklahoma... Beckham... Blaine... Caddo...
Canadian... Carter... Cleveland... Comanche... Cotton... Custer...
Dewey... Ellis... Garvin... Grady... Greer... Harmon... Harper...
Jackson... Kingfisher... Kiowa... Logan... major... McClain...
Murray... Oklahoma... Pontotoc... Pottawatomie... Roger Mills...
Seminole... Stephens... Tillman... Washita and Woodward. In
northern Texas... Foard... Hardeman... Wichita and Wilbarger.

* Through this evening

* rainfall amounts of 2 to 3 inches.

* Heavy rainfall will cause areal flooding... elevated creeks and
rivers.

Precautionary/preparedness actions...

Monitor weather forecasts and information. Make plans to get to
higher ground if flooding happens.